Аэропорт: Симферополь. Симферополь

ICAO: URFF

METAR:
2019-07-23 18:30:00
URFF 231830Z 09005MPS 9999 FEW040CB 22/16 Q1012 R01/090095 TEMPO -TSRA BKN030CB
METAR:
2019-07-23 16:55:00
TAF URFF 231655Z 2318/2418 04003MPS 9999 BKN030CB TEMPO 2318/2321 VRB14MPS -TSRA TEMPO 2408/2415 VRB14MPS -TSRA BKN020CB